KMVN

Mount Vernon Airport

Mount Vernon, Illinois, USA
METAR KMVN 170156Z AUTO 19007KT 10SM CLR 03/M01 A3011 RMK AO2 SLP199 T00331011
Observed Flight Rules
Dec-17 @ 01:56 UTC (36 minutes ago) Visual Flight Rules
Wind Visibility Clouds
190° at 7 knots 10 miles
  • Clear skies
Temperatures Readings
Current 3°C / 37°F
Dewpoint -1°C / 30°F
Humidity 75%
Altimeter 30.11" Hg
Pressure 1019.9 hPa
Elevation 146
METAR KMVN 170156Z AUTO 19007KT 10SM CLR 03/M01 A3011 RMK AO2 SLP199 T00331011
Observed Flight Rules
Dec-17 @ 01:56 UTC
(36 minutes ago)
VFR
Wind Visibility
190° at 7 knots 10 miles
Clouds
  • Clear skies
Temperature Dewpoint
3°C / 37°F -1°C / 30°F
Humidity Altimeter Pressure
75% 30.11" Hg 1019.9 hPa